sensor_id;sensor_type;location;lat;lon;timestamp;P1;durP1;ratioP1;P2;durP2;ratioP2
83630;SDS011;73593;52.134;5.426;2024-02-15T00:01:25;11.85;;;4.70;;
83630;SDS011;73593;52.134;5.426;2024-02-15T00:03:52;11.32;;;4.68;;
83630;SDS011;73593;52.134;5.426;2024-02-15T00:06:21;9.93;;;4.72;;
83630;SDS011;73593;52.134;5.426;2024-02-15T00:08:48;11.02;;;4.88;;
83630;SDS011;73593;52.134;5.426;2024-02-15T00:11:18;11.02;;;4.47;;
83630;SDS011;73593;52.134;5.426;2024-02-15T00:13:45;12.63;;;5.18;;
83630;SDS011;73593;52.134;5.426;2024-02-15T00:16:13;11.50;;;5.00;;
83630;SDS011;73593;52.134;5.426;2024-02-15T00:18:41;10.68;;;5.30;;
83630;SDS011;73593;52.134;5.426;2024-02-15T00:21:07;14.20;;;5.50;;
83630;SDS011;73593;52.134;5.426;2024-02-15T00:23:37;14.18;;;4.82;;
83630;SDS011;73593;52.134;5.426;2024-02-15T00:26:06;11.80;;;5.15;;
83630;SDS011;73593;52.134;5.426;2024-02-15T00:28:40;12.38;;;4.60;;
83630;SDS011;73593;52.134;5.426;2024-02-15T00:31:10;10.63;;;4.63;;
83630;SDS011;73593;52.134;5.426;2024-02-15T00:33:37;13.90;;;5.38;;
83630;SDS011;73593;52.134;5.426;2024-02-15T00:36:09;11.95;;;4.43;;
83630;SDS011;73593;52.134;5.426;2024-02-15T00:38:36;13.85;;;4.50;;
83630;SDS011;73593;52.134;5.426;2024-02-15T00:41:04;12.20;;;5.18;;
83630;SDS011;73593;52.134;5.426;2024-02-15T00:43:34;11.77;;;4.50;;
83630;SDS011;73593;52.134;5.426;2024-02-15T00:46:03;13.05;;;4.63;;
83630;SDS011;73593;52.134;5.426;2024-02-15T00:48:30;10.38;;;3.90;;
83630;SDS011;73593;52.134;5.426;2024-02-15T00:50:57;13.95;;;4.72;;
83630;SDS011;73593;52.134;5.426;2024-02-15T00:53:31;8.82;;;4.28;;
83630;SDS011;73593;52.134;5.426;2024-02-15T00:55:58;10.02;;;4.05;;
83630;SDS011;73593;52.134;5.426;2024-02-15T00:58:27;11.05;;;4.18;;
83630;SDS011;73593;52.134;5.426;2024-02-15T01:00:54;9.80;;;4.22;;
83630;SDS011;73593;52.134;5.426;2024-02-15T01:03:21;9.75;;;4.18;;
83630;SDS011;73593;52.134;5.426;2024-02-15T01:05:50;11.15;;;4.03;;
83630;SDS011;73593;52.134;5.426;2024-02-15T01:08:21;11.38;;;3.92;;
83630;SDS011;73593;52.134;5.426;2024-02-15T01:10:48;12.00;;;4.40;;
83630;SDS011;73593;52.134;5.426;2024-02-15T01:13:14;8.68;;;3.42;;
83630;SDS011;73593;52.134;5.426;2024-02-15T01:15:41;8.98;;;3.88;;
83630;SDS011;73593;52.134;5.426;2024-02-15T01:18:10;9.43;;;4.20;;
83630;SDS011;73593;52.134;5.426;2024-02-15T01:20:37;9.63;;;3.88;;
83630;SDS011;73593;52.134;5.426;2024-02-15T01:23:04;12.85;;;3.67;;
83630;SDS011;73593;52.134;5.426;2024-02-15T01:25:34;11.10;;;4.18;;
83630;SDS011;73593;52.134;5.426;2024-02-15T01:28:03;11.35;;;4.50;;
83630;SDS011;73593;52.134;5.426;2024-02-15T01:30:33;11.50;;;4.93;;
83630;SDS011;73593;52.134;5.426;2024-02-15T01:32:59;13.20;;;5.38;;
83630;SDS011;73593;52.134;5.426;2024-02-15T01:35:38;10.80;;;5.55;;
83630;SDS011;73593;52.134;5.426;2024-02-15T01:38:05;14.68;;;5.88;;
83630;SDS011;73593;52.134;5.426;2024-02-15T01:40:34;14.20;;;5.78;;
83630;SDS011;73593;52.134;5.426;2024-02-15T01:43:03;16.35;;;6.15;;
83630;SDS011;73593;52.134;5.426;2024-02-15T01:45:32;14.20;;;6.15;;
83630;SDS011;73593;52.134;5.426;2024-02-15T01:47:58;13.95;;;6.82;;
83630;SDS011;73593;52.134;5.426;2024-02-15T01:50:26;16.08;;;7.13;;
83630;SDS011;73593;52.134;5.426;2024-02-15T01:52:55;16.25;;;7.82;;
83630;SDS011;73593;52.134;5.426;2024-02-15T01:55:26;18.05;;;7.70;;
83630;SDS011;73593;52.134;5.426;2024-02-15T01:57:55;18.30;;;7.97;;
83630;SDS011;73593;52.134;5.426;2024-02-15T02:00:27;18.65;;;8.07;;
83630;SDS011;73593;52.134;5.426;2024-02-15T02:02:57;19.25;;;7.93;;
83630;SDS011;73593;52.134;5.426;2024-02-15T02:05:29;17.35;;;8.43;;
83630;SDS011;73593;52.134;5.426;2024-02-15T02:07:58;17.10;;;7.75;;
83630;SDS011;73593;52.134;5.426;2024-02-15T02:10:28;14.40;;;8.10;;
83630;SDS011;73593;52.134;5.426;2024-02-15T02:12:59;17.20;;;7.90;;
83630;SDS011;73593;52.134;5.426;2024-02-15T02:15:32;14.75;;;6.95;;
83630;SDS011;73593;52.134;5.426;2024-02-15T02:17:59;16.48;;;7.72;;
83630;SDS011;73593;52.134;5.426;2024-02-15T02:20:29;15.77;;;7.63;;
83630;SDS011;73593;52.134;5.426;2024-02-15T02:23:03;17.80;;;7.25;;
83630;SDS011;73593;52.134;5.426;2024-02-15T02:25:36;18.40;;;7.40;;
83630;SDS011;73593;52.134;5.426;2024-02-15T02:28:05;17.00;;;7.68;;
83630;SDS011;73593;52.134;5.426;2024-02-15T02:30:33;16.30;;;7.72;;
83630;SDS011;73593;52.134;5.426;2024-02-15T02:33:02;14.80;;;7.22;;
83630;SDS011;73593;52.134;5.426;2024-02-15T02:35:33;15.98;;;7.35;;
83630;SDS011;73593;52.134;5.426;2024-02-15T02:38:01;17.98;;;6.93;;
83630;SDS011;73593;52.134;5.426;2024-02-15T02:40:28;19.30;;;7.97;;
83630;SDS011;73593;52.134;5.426;2024-02-15T02:42:55;16.17;;;7.45;;
83630;SDS011;73593;52.134;5.426;2024-02-15T02:45:27;13.18;;;6.45;;
83630;SDS011;73593;52.134;5.426;2024-02-15T02:47:54;15.60;;;6.65;;
83630;SDS011;73593;52.134;5.426;2024-02-15T02:50:23;12.75;;;6.38;;
83630;SDS011;73593;52.134;5.426;2024-02-15T02:52:53;14.02;;;6.65;;
83630;SDS011;73593;52.134;5.426;2024-02-15T02:55:20;14.15;;;6.28;;
83630;SDS011;73593;52.134;5.426;2024-02-15T02:57:51;15.65;;;6.75;;
83630;SDS011;73593;52.134;5.426;2024-02-15T03:00:19;14.63;;;6.18;;
83630;SDS011;73593;52.134;5.426;2024-02-15T03:02:46;17.52;;;6.93;;
83630;SDS011;73593;52.134;5.426;2024-02-15T03:05:13;15.02;;;6.20;;
83630;SDS011;73593;52.134;5.426;2024-02-15T03:10:10;13.20;;;5.85;;
83630;SDS011;73593;52.134;5.426;2024-02-15T03:12:41;16.20;;;6.03;;
83630;SDS011;73593;52.134;5.426;2024-02-15T03:15:14;13.30;;;5.20;;
83630;SDS011;73593;52.134;5.426;2024-02-15T03:17:43;15.93;;;6.03;;
83630;SDS011;73593;52.134;5.426;2024-02-15T03:20:13;14.57;;;5.97;;
83630;SDS011;73593;52.134;5.426;2024-02-15T03:22:54;11.40;;;5.32;;
83630;SDS011;73593;52.134;5.426;2024-02-15T03:25:25;12.10;;;5.60;;
83630;SDS011;73593;52.134;5.426;2024-02-15T03:28:01;14.63;;;5.25;;
83630;SDS011;73593;52.134;5.426;2024-02-15T03:30:33;11.82;;;4.72;;
83630;SDS011;73593;52.134;5.426;2024-02-15T03:33:01;13.32;;;5.78;;
83630;SDS011;73593;52.134;5.426;2024-02-15T03:35:32;14.73;;;5.40;;
83630;SDS011;73593;52.134;5.426;2024-02-15T03:37:59;16.15;;;6.43;;
83630;SDS011;73593;52.134;5.426;2024-02-15T03:40:27;10.63;;;4.78;;
83630;SDS011;73593;52.134;5.426;2024-02-15T03:42:54;10.52;;;5.00;;
83630;SDS011;73593;52.134;5.426;2024-02-15T03:45:22;11.85;;;5.28;;
83630;SDS011;73593;52.134;5.426;2024-02-15T03:47:53;13.70;;;5.60;;
83630;SDS011;73593;52.134;5.426;2024-02-15T03:50:20;14.45;;;5.00;;
83630;SDS011;73593;52.134;5.426;2024-02-15T03:57:45;12.73;;;4.57;;
83630;SDS011;73593;52.134;5.426;2024-02-15T04:00:17;12.88;;;4.55;;
83630;SDS011;73593;52.134;5.426;2024-02-15T04:05:21;12.38;;;4.93;;
83630;SDS011;73593;52.134;5.426;2024-02-15T04:07:50;10.88;;;4.20;;
83630;SDS011;73593;52.134;5.426;2024-02-15T04:10:19;12.68;;;4.50;;
83630;SDS011;73593;52.134;5.426;2024-02-15T04:12:46;9.98;;;4.35;;
83630;SDS011;73593;52.134;5.426;2024-02-15T04:15:13;16.65;;;4.55;;
83630;SDS011;73593;52.134;5.426;2024-02-15T04:17:46;10.45;;;5.32;;
83630;SDS011;73593;52.134;5.426;2024-02-15T04:20:13;12.07;;;4.32;;
83630;SDS011;73593;52.134;5.426;2024-02-15T04:22:44;9.77;;;4.15;;
83630;SDS011;73593;52.134;5.426;2024-02-15T04:25:10;13.50;;;4.43;;
83630;SDS011;73593;52.134;5.426;2024-02-15T04:27:44;11.02;;;4.53;;
83630;SDS011;73593;52.134;5.426;2024-02-15T04:30:16;12.30;;;4.93;;
83630;SDS011;73593;52.134;5.426;2024-02-15T04:32:43;13.85;;;4.90;;
83630;SDS011;73593;52.134;5.426;2024-02-15T04:35:11;12.45;;;5.00;;
83630;SDS011;73593;52.134;5.426;2024-02-15T04:37:41;14.38;;;4.80;;
83630;SDS011;73593;52.134;5.426;2024-02-15T04:40:08;10.40;;;4.35;;
83630;SDS011;73593;52.134;5.426;2024-02-15T04:42:40;11.00;;;3.88;;
83630;SDS011;73593;52.134;5.426;2024-02-15T04:45:12;11.95;;;3.97;;
83630;SDS011;73593;52.134;5.426;2024-02-15T04:47:41;8.10;;;3.47;;
83630;SDS011;73593;52.134;5.426;2024-02-15T04:50:08;12.77;;;4.30;;
83630;SDS011;73593;52.134;5.426;2024-02-15T04:52:36;13.77;;;4.35;;
83630;SDS011;73593;52.134;5.426;2024-02-15T04:55:03;12.23;;;4.65;;
83630;SDS011;73593;52.134;5.426;2024-02-15T04:57:32;12.48;;;3.88;;
83630;SDS011;73593;52.134;5.426;2024-02-15T05:00:03;10.90;;;4.00;;
83630;SDS011;73593;52.134;5.426;2024-02-15T05:02:41;9.32;;;4.55;;
83630;SDS011;73593;52.134;5.426;2024-02-15T05:05:13;12.98;;;4.22;;
83630;SDS011;73593;52.134;5.426;2024-02-15T05:07:45;10.20;;;3.90;;
83630;SDS011;73593;52.134;5.426;2024-02-15T05:10:11;11.88;;;4.22;;
83630;SDS011;73593;52.134;5.426;2024-02-15T05:15:09;10.82;;;3.92;;
83630;SDS011;73593;52.134;5.426;2024-02-15T05:17:39;8.98;;;3.92;;
83630;SDS011;73593;52.134;5.426;2024-02-15T05:20:10;14.70;;;4.68;;
83630;SDS011;73593;52.134;5.426;2024-02-15T05:22:43;12.63;;;4.13;;
83630;SDS011;73593;52.134;5.426;2024-02-15T05:25:16;9.32;;;4.15;;
83630;SDS011;73593;52.134;5.426;2024-02-15T05:27:51;12.10;;;4.22;;
83630;SDS011;73593;52.134;5.426;2024-02-15T05:30:21;12.38;;;4.47;;
83630;SDS011;73593;52.134;5.426;2024-02-15T05:32:48;12.73;;;4.72;;
83630;SDS011;73593;52.134;5.426;2024-02-15T05:37:45;11.65;;;4.50;;
83630;SDS011;73593;52.134;5.426;2024-02-15T05:40:15;14.20;;;4.55;;
83630;SDS011;73593;52.134;5.426;2024-02-15T05:42:48;11.25;;;3.85;;
83630;SDS011;73593;52.134;5.426;2024-02-15T05:47:54;9.90;;;4.25;;
83630;SDS011;73593;52.134;5.426;2024-02-15T05:50:21;9.13;;;4.30;;
83630;SDS011;73593;52.134;5.426;2024-02-15T05:52:50;10.13;;;4.70;;
83630;SDS011;73593;52.134;5.426;2024-02-15T05:55:21;12.50;;;4.75;;
83630;SDS011;73593;52.134;5.426;2024-02-15T05:57:51;10.65;;;5.00;;
83630;SDS011;73593;52.134;5.426;2024-02-15T06:00:18;10.98;;;4.07;;
83630;SDS011;73593;52.134;5.426;2024-02-15T06:02:49;12.48;;;4.53;;
83630;SDS011;73593;52.134;5.426;2024-02-15T06:05:22;9.88;;;4.43;;
83630;SDS011;73593;52.134;5.426;2024-02-15T06:07:50;12.68;;;4.25;;
83630;SDS011;73593;52.134;5.426;2024-02-15T06:10:19;10.77;;;4.32;;
83630;SDS011;73593;52.134;5.426;2024-02-15T06:12:45;9.35;;;4.50;;
83630;SDS011;73593;52.134;5.426;2024-02-15T06:15:12;8.82;;;4.78;;
83630;SDS011;73593;52.134;5.426;2024-02-15T06:17:43;8.60;;;4.60;;
83630;SDS011;73593;52.134;5.426;2024-02-15T06:20:13;9.27;;;3.88;;
83630;SDS011;73593;52.134;5.426;2024-02-15T06:22:40;9.63;;;4.05;;
83630;SDS011;73593;52.134;5.426;2024-02-15T06:28:15;8.52;;;4.00;;
83630;SDS011;73593;52.134;5.426;2024-02-15T06:31:01;11.40;;;4.53;;
83630;SDS011;73593;52.134;5.426;2024-02-15T06:33:48;7.90;;;4.15;;
83630;SDS011;73593;52.134;5.426;2024-02-15T06:36:33;7.15;;;3.97;;
83630;SDS011;73593;52.134;5.426;2024-02-15T06:39:21;9.45;;;4.22;;
83630;SDS011;73593;52.134;5.426;2024-02-15T06:42:10;10.05;;;4.28;;
83630;SDS011;73593;52.134;5.426;2024-02-15T06:44:49;11.13;;;4.65;;
83630;SDS011;73593;52.134;5.426;2024-02-15T06:47:16;12.43;;;4.78;;
83630;SDS011;73593;52.134;5.426;2024-02-15T06:49:50;9.75;;;4.80;;
83630;SDS011;73593;52.134;5.426;2024-02-15T06:52:20;16.02;;;5.38;;
83630;SDS011;73593;52.134;5.426;2024-02-15T06:54:51;9.50;;;5.20;;
83630;SDS011;73593;52.134;5.426;2024-02-15T06:57:18;11.35;;;5.35;;
83630;SDS011;73593;52.134;5.426;2024-02-15T06:59:46;12.38;;;4.82;;
83630;SDS011;73593;52.134;5.426;2024-02-15T07:02:16;10.18;;;5.40;;
83630;SDS011;73593;52.134;5.426;2024-02-15T07:04:44;9.80;;;4.65;;
83630;SDS011;73593;52.134;5.426;2024-02-15T07:07:23;11.52;;;5.32;;
83630;SDS011;73593;52.134;5.426;2024-02-15T07:09:59;9.50;;;4.80;;
83630;SDS011;73593;52.134;5.426;2024-02-15T07:12:29;12.25;;;4.72;;
83630;SDS011;73593;52.134;5.426;2024-02-15T07:14:58;10.40;;;4.68;;
83630;SDS011;73593;52.134;5.426;2024-02-15T07:17:30;10.05;;;4.40;;
83630;SDS011;73593;52.134;5.426;2024-02-15T07:19:57;10.15;;;5.07;;
83630;SDS011;73593;52.134;5.426;2024-02-15T07:22:24;26.38;;;11.95;;
83630;SDS011;73593;52.134;5.426;2024-02-15T07:24:50;10.98;;;6.43;;
83630;SDS011;73593;52.134;5.426;2024-02-15T07:27:21;11.77;;;5.20;;
83630;SDS011;73593;52.134;5.426;2024-02-15T07:29:50;12.25;;;4.80;;
83630;SDS011;73593;52.134;5.426;2024-02-15T07:32:19;9.65;;;5.30;;
83630;SDS011;73593;52.134;5.426;2024-02-15T07:34:46;12.52;;;4.50;;
83630;SDS011;73593;52.134;5.426;2024-02-15T07:39:42;9.10;;;4.75;;
83630;SDS011;73593;52.134;5.426;2024-02-15T07:42:11;9.40;;;4.63;;
83630;SDS011;73593;52.134;5.426;2024-02-15T07:44:39;8.88;;;4.07;;
83630;SDS011;73593;52.134;5.426;2024-02-15T07:47:05;9.50;;;4.28;;
83630;SDS011;73593;52.134;5.426;2024-02-15T07:49:36;6.93;;;3.83;;
83630;SDS011;73593;52.134;5.426;2024-02-15T07:52:03;8.20;;;3.47;;
83630;SDS011;73593;52.134;5.426;2024-02-15T07:54:33;9.98;;;4.05;;
83630;SDS011;73593;52.134;5.426;2024-02-15T07:57:00;6.40;;;3.22;;
83630;SDS011;73593;52.134;5.426;2024-02-15T07:59:30;8.52;;;3.75;;
83630;SDS011;73593;52.134;5.426;2024-02-15T08:01:59;7.43;;;3.20;;
83630;SDS011;73593;52.134;5.426;2024-02-15T08:04:28;6.95;;;2.88;;
83630;SDS011;73593;52.134;5.426;2024-02-15T08:06:55;6.28;;;3.45;;
83630;SDS011;73593;52.134;5.426;2024-02-15T08:09:22;6.95;;;3.13;;
83630;SDS011;73593;52.134;5.426;2024-02-15T08:11:50;6.05;;;2.75;;
83630;SDS011;73593;52.134;5.426;2024-02-15T08:14:17;7.30;;;2.80;;
83630;SDS011;73593;52.134;5.426;2024-02-15T08:16:47;6.07;;;2.60;;
83630;SDS011;73593;52.134;5.426;2024-02-15T08:19:14;6.95;;;3.10;;
83630;SDS011;73593;52.134;5.426;2024-02-15T08:21:41;6.22;;;3.05;;
83630;SDS011;73593;52.134;5.426;2024-02-15T08:24:17;5.57;;;2.90;;
83630;SDS011;73593;52.134;5.426;2024-02-15T08:26:46;6.05;;;2.20;;
83630;SDS011;73593;52.134;5.426;2024-02-15T08:29:15;5.72;;;2.85;;
83630;SDS011;73593;52.134;5.426;2024-02-15T08:31:42;6.45;;;2.83;;
83630;SDS011;73593;52.134;5.426;2024-02-15T08:34:09;9.25;;;4.28;;
83630;SDS011;73593;52.134;5.426;2024-02-15T08:36:42;6.80;;;3.08;;
83630;SDS011;73593;52.134;5.426;2024-02-15T08:39:16;6.38;;;2.83;;
83630;SDS011;73593;52.134;5.426;2024-02-15T08:41:46;7.47;;;2.50;;
83630;SDS011;73593;52.134;5.426;2024-02-15T08:44:13;6.85;;;3.10;;
83630;SDS011;73593;52.134;5.426;2024-02-15T08:46:47;5.78;;;1.98;;
83630;SDS011;73593;52.134;5.426;2024-02-15T08:49:19;6.28;;;2.55;;
83630;SDS011;73593;52.134;5.426;2024-02-15T08:51:47;5.10;;;2.10;;
83630;SDS011;73593;52.134;5.426;2024-02-15T08:54:13;3.92;;;1.45;;
83630;SDS011;73593;52.134;5.426;2024-02-15T08:56:40;4.03;;;1.83;;
83630;SDS011;73593;52.134;5.426;2024-02-15T08:59:07;5.80;;;1.50;;
83630;SDS011;73593;52.134;5.426;2024-02-15T09:01:39;4.35;;;1.73;;
83630;SDS011;73593;52.134;5.426;2024-02-15T09:04:09;5.45;;;2.45;;
83630;SDS011;73593;52.134;5.426;2024-02-15T09:06:36;4.65;;;1.70;;
83630;SDS011;73593;52.134;5.426;2024-02-15T09:09:03;3.92;;;1.58;;
83630;SDS011;73593;52.134;5.426;2024-02-15T09:11:32;4.45;;;1.80;;
83630;SDS011;73593;52.134;5.426;2024-02-15T09:13:58;5.45;;;1.98;;
83630;SDS011;73593;52.134;5.426;2024-02-15T09:16:27;4.38;;;1.65;;
83630;SDS011;73593;52.134;5.426;2024-02-15T09:18:57;5.75;;;1.80;;
83630;SDS011;73593;52.134;5.426;2024-02-15T09:21:27;4.75;;;1.98;;
83630;SDS011;73593;52.134;5.426;2024-02-15T09:23:55;4.65;;;1.73;;
83630;SDS011;73593;52.134;5.426;2024-02-15T09:26:22;5.28;;;1.70;;
83630;SDS011;73593;52.134;5.426;2024-02-15T09:28:51;6.50;;;1.83;;
83630;SDS011;73593;52.134;5.426;2024-02-15T09:31:19;7.03;;;2.30;;
83630;SDS011;73593;52.134;5.426;2024-02-15T09:33:46;4.80;;;1.80;;
83630;SDS011;73593;52.134;5.426;2024-02-15T09:36:13;5.28;;;1.63;;
83630;SDS011;73593;52.134;5.426;2024-02-15T09:38:43;5.57;;;1.98;;
83630;SDS011;73593;52.134;5.426;2024-02-15T09:41:13;5.85;;;2.20;;
83630;SDS011;73593;52.134;5.426;2024-02-15T09:43:39;5.18;;;1.95;;
83630;SDS011;73593;52.134;5.426;2024-02-15T09:46:09;5.78;;;2.17;;
83630;SDS011;73593;52.134;5.426;2024-02-15T09:48:35;5.07;;;1.98;;
83630;SDS011;73593;52.134;5.426;2024-02-15T09:51:04;8.70;;;2.60;;
83630;SDS011;73593;52.134;5.426;2024-02-15T09:53:32;8.85;;;2.67;;
83630;SDS011;73593;52.134;5.426;2024-02-15T09:55:59;6.82;;;3.17;;
83630;SDS011;73593;52.134;5.426;2024-02-15T09:58:30;7.45;;;2.00;;
83630;SDS011;73593;52.134;5.426;2024-02-15T10:01:01;6.28;;;2.13;;
83630;SDS011;73593;52.134;5.426;2024-02-15T10:03:46;8.73;;;2.78;;
83630;SDS011;73593;52.134;5.426;2024-02-15T10:06:18;5.90;;;2.05;;
83630;SDS011;73593;52.134;5.426;2024-02-15T10:08:46;9.43;;;2.53;;
83630;SDS011;73593;52.134;5.426;2024-02-15T10:11:16;7.00;;;2.25;;
83630;SDS011;73593;52.134;5.426;2024-02-15T10:13:47;7.13;;;2.42;;
83630;SDS011;73593;52.134;5.426;2024-02-15T10:16:16;6.15;;;2.72;;
83630;SDS011;73593;52.134;5.426;2024-02-15T10:18:51;8.93;;;2.50;;
83630;SDS011;73593;52.134;5.426;2024-02-15T10:21:27;5.65;;;1.95;;
83630;SDS011;73593;52.134;5.426;2024-02-15T10:24:06;8.68;;;3.03;;
83630;SDS011;73593;52.134;5.426;2024-02-15T10:26:36;5.68;;;2.30;;
83630;SDS011;73593;52.134;5.426;2024-02-15T10:29:09;7.88;;;2.72;;
83630;SDS011;73593;52.134;5.426;2024-02-15T10:31:51;6.93;;;2.85;;
83630;SDS011;73593;52.134;5.426;2024-02-15T10:34:19;6.82;;;3.10;;
83630;SDS011;73593;52.134;5.426;2024-02-15T10:39:17;6.40;;;2.08;;
83630;SDS011;73593;52.134;5.426;2024-02-15T10:41:51;6.90;;;3.22;;
83630;SDS011;73593;52.134;5.426;2024-02-15T10:44:21;5.57;;;2.50;;
83630;SDS011;73593;52.134;5.426;2024-02-15T10:46:50;6.22;;;2.75;;
83630;SDS011;73593;52.134;5.426;2024-02-15T10:49:21;7.70;;;2.50;;
83630;SDS011;73593;52.134;5.426;2024-02-15T10:51:57;10.15;;;2.53;;
83630;SDS011;73593;52.134;5.426;2024-02-15T10:57:06;5.72;;;2.25;;
83630;SDS011;73593;52.134;5.426;2024-02-15T10:59:37;8.57;;;2.40;;
83630;SDS011;73593;52.134;5.426;2024-02-15T11:04:52;7.00;;;2.55;;
83630;SDS011;73593;52.134;5.426;2024-02-15T11:07:26;8.13;;;2.80;;
83630;SDS011;73593;52.134;5.426;2024-02-15T11:10:00;7.88;;;2.58;;
83630;SDS011;73593;52.134;5.426;2024-02-15T11:12:27;5.63;;;2.42;;
83630;SDS011;73593;52.134;5.426;2024-02-15T11:14:57;8.15;;;3.28;;
83630;SDS011;73593;52.134;5.426;2024-02-15T11:20:09;7.38;;;2.72;;
83630;SDS011;73593;52.134;5.426;2024-02-15T11:22:40;9.65;;;3.15;;
83630;SDS011;73593;52.134;5.426;2024-02-15T11:25:09;7.40;;;2.58;;
83630;SDS011;73593;52.134;5.426;2024-02-15T11:27:38;8.55;;;3.75;;
83630;SDS011;73593;52.134;5.426;2024-02-15T11:30:05;7.18;;;3.25;;
83630;SDS011;73593;52.134;5.426;2024-02-15T11:35:23;7.50;;;3.30;;
83630;SDS011;73593;52.134;5.426;2024-02-15T11:37:52;8.32;;;3.60;;
83630;SDS011;73593;52.134;5.426;2024-02-15T11:40:26;9.20;;;3.53;;
83630;SDS011;73593;52.134;5.426;2024-02-15T11:46:29;9.80;;;4.03;;
83630;SDS011;73593;52.134;5.426;2024-02-15T11:49:01;8.75;;;3.97;;
83630;SDS011;73593;52.134;5.426;2024-02-15T11:51:34;7.82;;;3.95;;
83630;SDS011;73593;52.134;5.426;2024-02-15T11:54:09;9.18;;;3.63;;
83630;SDS011;73593;52.134;5.426;2024-02-15T11:59:42;16.67;;;4.25;;
83630;SDS011;73593;52.134;5.426;2024-02-15T12:02:28;14.10;;;7.50;;
83630;SDS011;73593;52.134;5.426;2024-02-15T12:05:20;8.68;;;4.00;;
83630;SDS011;73593;52.134;5.426;2024-02-15T12:08:10;8.07;;;3.80;;
83630;SDS011;73593;52.134;5.426;2024-02-15T12:10:58;9.77;;;4.38;;
83630;SDS011;73593;52.134;5.426;2024-02-15T12:13:49;9.45;;;3.70;;
83630;SDS011;73593;52.134;5.426;2024-02-15T12:16:36;8.00;;;3.90;;
83630;SDS011;73593;52.134;5.426;2024-02-15T12:19:23;9.48;;;3.67;;
83630;SDS011;73593;52.134;5.426;2024-02-15T12:21:50;10.13;;;3.63;;
83630;SDS011;73593;52.134;5.426;2024-02-15T12:24:18;9.50;;;3.80;;
83630;SDS011;73593;52.134;5.426;2024-02-15T12:26:48;10.18;;;3.75;;
83630;SDS011;73593;52.134;5.426;2024-02-15T12:29:17;10.65;;;3.53;;
83630;SDS011;73593;52.134;5.426;2024-02-15T12:31:44;9.48;;;3.60;;
83630;SDS011;73593;52.134;5.426;2024-02-15T12:34:13;8.63;;;3.33;;
83630;SDS011;73593;52.134;5.426;2024-02-15T12:36:45;11.18;;;3.55;;
83630;SDS011;73593;52.134;5.426;2024-02-15T12:39:15;7.95;;;3.53;;
83630;SDS011;73593;52.134;5.426;2024-02-15T12:41:53;9.75;;;3.80;;
83630;SDS011;73593;52.134;5.426;2024-02-15T12:44:22;7.68;;;3.40;;
83630;SDS011;73593;52.134;5.426;2024-02-15T12:46:54;8.85;;;3.80;;
83630;SDS011;73593;52.134;5.426;2024-02-15T12:51:53;11.13;;;3.95;;
83630;SDS011;73593;52.134;5.426;2024-02-15T12:54:40;6.72;;;2.90;;
83630;SDS011;73593;52.134;5.426;2024-02-15T12:57:11;7.50;;;3.28;;
83630;SDS011;73593;52.134;5.426;2024-02-15T12:59:43;10.82;;;4.90;;
83630;SDS011;73593;52.134;5.426;2024-02-15T13:02:12;8.82;;;3.58;;
83630;SDS011;73593;52.134;5.426;2024-02-15T13:04:41;8.93;;;3.28;;
83630;SDS011;73593;52.134;5.426;2024-02-15T13:07:07;7.97;;;3.33;;
83630;SDS011;73593;52.134;5.426;2024-02-15T13:09:35;6.65;;;3.10;;
83630;SDS011;73593;52.134;5.426;2024-02-15T13:12:02;8.52;;;2.90;;
83630;SDS011;73593;52.134;5.426;2024-02-15T13:14:30;6.63;;;2.50;;
83630;SDS011;73593;52.134;5.426;2024-02-15T13:16:59;8.77;;;2.92;;
83630;SDS011;73593;52.134;5.426;2024-02-15T13:19:28;8.23;;;2.40;;
83630;SDS011;73593;52.134;5.426;2024-02-15T13:21:57;6.88;;;2.03;;
83630;SDS011;73593;52.134;5.426;2024-02-15T13:24:24;7.20;;;2.20;;
83630;SDS011;73593;52.134;5.426;2024-02-15T13:26:52;7.22;;;2.83;;
83630;SDS011;73593;52.134;5.426;2024-02-15T13:29:26;10.68;;;2.53;;
83630;SDS011;73593;52.134;5.426;2024-02-15T13:31:53;5.40;;;1.98;;
83630;SDS011;73593;52.134;5.426;2024-02-15T13:36:47;8.77;;;2.20;;
83630;SDS011;73593;52.134;5.426;2024-02-15T13:39:15;8.27;;;3.30;;
83630;SDS011;73593;52.134;5.426;2024-02-15T13:41:48;8.27;;;2.53;;
83630;SDS011;73593;52.134;5.426;2024-02-15T13:44:18;8.48;;;2.50;;
83630;SDS011;73593;52.134;5.426;2024-02-15T13:46:51;6.38;;;1.92;;
83630;SDS011;73593;52.134;5.426;2024-02-15T13:49:21;6.07;;;2.03;;
83630;SDS011;73593;52.134;5.426;2024-02-15T13:51:58;6.65;;;2.10;;
83630;SDS011;73593;52.134;5.426;2024-02-15T13:54:29;7.00;;;2.15;;
83630;SDS011;73593;52.134;5.426;2024-02-15T13:56:56;6.13;;;2.22;;
83630;SDS011;73593;52.134;5.426;2024-02-15T13:59:23;7.85;;;2.00;;
83630;SDS011;73593;52.134;5.426;2024-02-15T14:02:05;5.97;;;1.77;;
83630;SDS011;73593;52.134;5.426;2024-02-15T14:04:32;7.07;;;2.05;;
83630;SDS011;73593;52.134;5.426;2024-02-15T14:07:20;5.90;;;1.85;;
83630;SDS011;73593;52.134;5.426;2024-02-15T14:09:50;7.15;;;2.17;;
83630;SDS011;73593;52.134;5.426;2024-02-15T14:12:27;7.38;;;2.25;;
83630;SDS011;73593;52.134;5.426;2024-02-15T14:14:56;5.80;;;2.03;;
83630;SDS011;73593;52.134;5.426;2024-02-15T14:17:25;6.25;;;2.05;;
83630;SDS011;73593;52.134;5.426;2024-02-15T14:19:52;6.50;;;2.42;;
83630;SDS011;73593;52.134;5.426;2024-02-15T14:22:21;5.93;;;2.03;;
83630;SDS011;73593;52.134;5.426;2024-02-15T14:24:58;7.03;;;2.13;;
83630;SDS011;73593;52.134;5.426;2024-02-15T14:27:24;6.45;;;2.53;;
83630;SDS011;73593;52.134;5.426;2024-02-15T14:29:51;7.57;;;2.28;;
83630;SDS011;73593;52.134;5.426;2024-02-15T14:32:39;10.18;;;2.42;;
83630;SDS011;73593;52.134;5.426;2024-02-15T14:35:33;5.50;;;2.40;;
83630;SDS011;73593;52.134;5.426;2024-02-15T14:38:08;7.50;;;2.60;;
83630;SDS011;73593;52.134;5.426;2024-02-15T14:43:10;8.13;;;2.50;;
83630;SDS011;73593;52.134;5.426;2024-02-15T14:45:45;7.05;;;2.72;;
83630;SDS011;73593;52.134;5.426;2024-02-15T14:48:15;6.00;;;2.20;;
83630;SDS011;73593;52.134;5.426;2024-02-15T14:50:44;7.70;;;2.72;;
83630;SDS011;73593;52.134;5.426;2024-02-15T14:53:16;6.13;;;2.10;;
83630;SDS011;73593;52.134;5.426;2024-02-15T14:55:48;7.38;;;2.38;;
83630;SDS011;73593;52.134;5.426;2024-02-15T14:58:17;7.47;;;2.38;;
83630;SDS011;73593;52.134;5.426;2024-02-15T15:00:45;7.53;;;2.45;;
83630;SDS011;73593;52.134;5.426;2024-02-15T15:03:16;7.75;;;2.47;;
83630;SDS011;73593;52.134;5.426;2024-02-15T15:05:47;8.07;;;2.50;;
83630;SDS011;73593;52.134;5.426;2024-02-15T15:08:32;8.55;;;2.67;;
83630;SDS011;73593;52.134;5.426;2024-02-15T15:11:20;5.85;;;2.30;;
83630;SDS011;73593;52.134;5.426;2024-02-15T15:14:06;5.78;;;1.90;;
83630;SDS011;73593;52.134;5.426;2024-02-15T15:16:33;7.95;;;2.67;;
83630;SDS011;73593;52.134;5.426;2024-02-15T15:19:02;6.95;;;2.17;;
83630;SDS011;73593;52.134;5.426;2024-02-15T15:21:31;4.45;;;2.05;;
83630;SDS011;73593;52.134;5.426;2024-02-15T15:23:58;6.13;;;2.40;;
83630;SDS011;73593;52.134;5.426;2024-02-15T15:26:27;8.23;;;2.55;;
83630;SDS011;73593;52.134;5.426;2024-02-15T15:28:59;5.03;;;1.90;;
83630;SDS011;73593;52.134;5.426;2024-02-15T15:34:01;7.38;;;2.28;;
83630;SDS011;73593;52.134;5.426;2024-02-15T15:36:28;7.25;;;2.05;;
83630;SDS011;73593;52.134;5.426;2024-02-15T15:38:57;5.97;;;2.10;;
83630;SDS011;73593;52.134;5.426;2024-02-15T15:41:27;8.57;;;2.88;;
83630;SDS011;73593;52.134;5.426;2024-02-15T15:43:56;7.90;;;2.88;;
83630;SDS011;73593;52.134;5.426;2024-02-15T15:46:27;6.88;;;2.70;;
83630;SDS011;73593;52.134;5.426;2024-02-15T15:48:54;8.65;;;2.78;;
83630;SDS011;73593;52.134;5.426;2024-02-15T15:51:22;5.72;;;2.40;;
83630;SDS011;73593;52.134;5.426;2024-02-15T15:53:49;5.85;;;2.45;;
83630;SDS011;73593;52.134;5.426;2024-02-15T15:56:21;8.18;;;2.33;;